Denver International Airport
KDEN : now visible

Airfield :











YOU CAN JOIN US ON...

 
LOGIN :

Register | Disclaimer

   EN    FR    IT 

 









Legend :    VFR   Marginal VFR   IFR   Intensive IFR   Very Intensive IFR
Visi :
Ceiling :
>= 8 km
>= 3000ft
5 to 8 km
1000 to 3000 ft
1500m to 5 km
500 to 1000 ft
800 to 1500m
200 to 500 ft
< 800m
< 200 ft
Symbols :   Thunderstorms  Fog  Heavy snow  Heavy precipitations  Wind > 20 kt






- Airport Elevation : 5431 ft
- IATA code : DEN


KDEN - Denver International

CURRENT METAR :
  • 161453Z 24007KT 10SM FEW090 FEW130 SCT220 26/09 A3013 RMK AO2 SLP117 T02610094 53010

EXPIRED METARs :
  • 161353Z 26006KT 10SM FEW090 FEW130 FEW220 22/12 A3012 RMK AO2 SLP121 T02170117
  • 161253Z 25004KT 10SM FEW120 FEW200 18/13 A3011 RMK AO2 SLP121 T01780128

TAF KDEN
Valid from the 16 at 15:00 until the 17 at 18:00 UTC


161503Z 1615/1718 26006KT P6SM FEW090
FM162000 04009KT P6SM VCTS SCT060CB BKN120
TEMPO 1621/1701 VRB20G35KT -TSRA BKN060CB
FM170200 22016G26KT P6SM SCT060 BKN120
FM170600 20014KT P6SM FEW120 SCT220
KZDV FIR / North America



MET'MAP, your aeronautical weather chart ! - Copyright ORBIFLY December 2007 - Disclaimer

ORBIFLY MET'MAP TEAM :

Programming & Development : Alexandra Zaïnal
Concept & original design : Baudouin d'Aumeries
Assistance for programming : Marc-Olivier Méhu
Technical & hardware support : Manuel Goepfert

Contact : metmap@orbifly.com




SOURCES & CREDITS :

   NOAA       Earth
Advisory